Time;durP1;ratioP1;P1;durP2;ratioP2;P2;SDS_P1;SDS_P2;PMS_P1;PMS_P2;Temp;Humidity;BMP_temperature;BMP_pressure;BME280_temperature;BME280_humidity;BME280_pressure;Samples;Min_cycle;Max_cycle;Signal;HPM_P1;HPM_P2
2022/03/11 00:00:03;;;;;;;;;;;;;;;;;;;;;
2022/03/11 00:02:57;;;;;;;;;;;;;;;-2.48;46.83;102399.77;109793;1285;21953;-84
2022/03/11 00:06:02;;;;;;;30.50;18.10;;;;;;;-2.56;46.92;102405.48;109568;1285;22330;-85
2022/03/11 00:09:03;;;;;;;26.10;17.70;;;;;;;-2.60;47.00;102407.96;109634;1285;21887;-86
2022/03/11 00:11:43;;;;;;;25.20;16.30;;;;;;;-2.59;47.05;102406.91;109474;1282;21864;-84
2022/03/11 00:14:24;;;;;;;31.50;21.30;;;;;;;-2.61;47.02;102399.17;109807;1279;22373;-84
2022/03/11 00:17:33;;;;;;;35.60;21.70;;;;;;;-2.61;47.01;102401.09;109971;1278;21885;-84
2022/03/11 00:20:53;;;;;;;47.30;26.90;;;;;;;-2.63;46.98;102400.96;109850;1282;22578;-84
2022/03/11 00:23:54;;;;;;;42.30;24.60;;;;;;;-2.68;46.98;102396.06;109187;1289;21837;-83
2022/03/11 00:26:52;;;;;;;;;;;;;;;;;;;;;
2022/03/11 00:30:19;;;;;;;38.50;22.50;;;;;;;-2.72;47.01;102388.56;109766;1284;21947;-84
2022/03/11 00:33:12;;;;;;;38.70;24.80;;;;;;;-2.75;47.04;102386.73;108918;1289;21901;-84
2022/03/11 00:35:48;;;;;;;36.00;21.40;;;;;;;-2.78;47.09;102384.55;109793;1283;21891;-85
2022/03/11 00:38:33;;;;;;;37.10;24.60;;;;;;;-2.77;47.19;102392.80;109685;1283;22345;-84
2022/03/11 00:41:06;;;;;;;33.60;20.90;;;;;;;-2.79;47.17;102392.67;109834;1283;21963;-82
2022/03/11 00:43:59;;;;;;;28.50;19.70;;;;;;;-2.78;47.19;102394.04;109199;1287;21897;-84
2022/03/11 00:46:48;;;;;;;24.50;16.90;;;;;;;-2.83;47.16;102389.82;109259;1289;21931;-84
2022/03/11 00:49:33;;;;;;;28.90;17.50;;;;;;;-2.84;47.22;102387.08;109156;1289;21896;-85
2022/03/11 00:52:23;;;;;;;22.00;15.20;;;;;;;-2.82;47.26;102387.58;108090;1289;1666247;-86
2022/03/11 00:55:20;;;;;;;22.90;16.90;;;;;;;-2.88;47.28;102384.21;109422;1289;21920;-88
2022/03/11 00:57:51;;;;;;;24.00;15.00;;;;;;;-2.90;47.32;102390.82;108689;1292;22272;-84
2022/03/11 01:00:27;;;;;;;27.90;16.50;;;;;;;-2.91;47.36;102383.27;108522;1291;21983;-84
2022/03/11 01:03:20;;;;;;;25.50;16.80;;;;;;;-2.93;47.40;102386.73;108821;1292;22465;-86
2022/03/11 01:06:06;;;;;;;26.00;17.10;;;;;;;-2.95;47.43;102390.25;109686;1283;21845;-85
2022/03/11 01:09:14;;;;;;;;;;;;;;;;;;;;;
2022/03/11 01:11:47;;;;;;;35.70;20.90;;;;;;;-3.00;47.53;102389.50;110019;1276;21888;-83
2022/03/11 01:14:27;;;;;;;32.20;21.80;;;;;;;-3.01;47.58;102389.16;110027;1275;21965;-84
2022/03/11 01:17:12;;;;;;;25.60;18.90;;;;;;;-3.04;47.59;102389.23;110160;1273;21905;-84
2022/03/11 01:20:17;;;;;;;;;;;;;;;;;;;;;
2022/03/11 01:23:23;;;;;;;20.20;14.20;;;;;;;-3.07;47.77;102387.02;110311;1272;22307;-84
2022/03/11 01:26:08;;;;;;;20.60;14.60;;;;;;;-3.08;47.86;102382.23;110254;1272;21885;-84
2022/03/11 01:29:07;;;;;;;23.40;16.50;;;;;;;-3.07;47.94;102383.93;110156;1273;21979;-84
2022/03/11 01:31:58;;;;;;;26.60;16.50;;;;;;;-3.06;47.95;102387.02;110262;1272;22007;-87
2022/03/11 01:35:10;;;;;;;25.20;17.70;;;;;;;-3.07;48.02;102387.74;110083;1275;21880;-87
2022/03/11 01:37:57;;;;;;;26.60;17.70;;;;;;;-3.10;47.98;102389.50;110198;1275;21907;-85
2022/03/11 01:40:36;;;;;;;29.20;17.00;;;;;;;-3.11;48.01;102381.59;110098;1275;22405;-85
2022/03/11 01:43:18;;;;;;;29.70;18.70;;;;;;;-3.12;48.00;102375.95;110166;1275;22091;-84
2022/03/11 01:45:55;;;;;;;31.60;18.90;;;;;;;-3.13;48.04;102377.14;110019;1278;21988;-83
2022/03/11 01:48:51;;;;;;;25.50;16.20;;;;;;;-3.15;48.07;102375.29;109997;1279;22005;-82
2022/03/11 01:51:38;;;;;;;34.20;20.30;;;;;;;-3.19;48.12;102376.06;109977;1279;21964;-83
2022/03/11 01:54:53;;;;;;;37.50;22.30;;;;;;;-3.22;48.28;102379.21;109945;1279;22289;-83
2022/03/11 01:57:56;;;;;;;37.80;22.30;;;;;;;-3.25;48.34;102382.92;109992;1279;22300;-84
2022/03/11 02:01:28;;;;;;;;;;;;;;;;;;;;;
2022/03/11 02:04:37;;;;;;;41.60;24.00;;;;;;;-3.32;48.57;102381.14;109865;1279;22340;-84
2022/03/11 02:07:58;;;;;;;43.10;27.20;;;;;;;-3.36;48.67;102383.45;109911;1281;21934;-85
2022/03/11 02:11:24;;;;;;;37.00;26.60;;;;;;;-3.40;48.85;102381.81;109968;1278;21921;-84
2022/03/11 02:14:12;;;;;;;25.80;21.60;;;;;;;-3.42;49.02;102382.89;110005;1279;21933;-85
2022/03/11 02:16:50;;;;;;;30.80;21.70;;;;;;;-3.45;49.14;102381.74;109844;1284;22385;-86
2022/03/11 02:20:14;;;;;;;29.70;18.90;;;;;;;-3.41;49.17;102387.36;109828;1281;22491;-84
2022/03/11 02:23:01;;;;;;;29.90;18.60;;;;;;;-3.47;49.34;102385.04;109743;1286;21863;-86
2022/03/11 02:26:17;;;;;;;29.10;19.60;;;;;;;-3.46;49.46;102385.02;109721;1287;21978;-85
2022/03/11 02:30:56;;;;;;;28.30;19.20;;;;;;;-3.51;49.62;102383.90;109610;1288;21865;-86
2022/03/11 02:34:53;;;;;;;;;;;;;;;;;;;;;
2022/03/11 02:41:36;;;;;;;35.20;23.10;;;;;;;-3.62;50.01;102383.58;111447;1263;21939;-86
2022/03/11 02:45:02;;;;;;;39.40;26.30;;;;;;;-3.67;50.15;102386.25;110097;1276;22432;-87
2022/03/11 02:53:00;;;;;;;41.60;30.00;;;;;;;-3.79;50.69;102399.72;110569;1271;22372;-87
2022/03/11 02:55:46;;;;;;;45.70;30.20;;;;;;;-3.85;50.94;102394.14;110006;1279;22206;-86
2022/03/11 02:59:02;;;;;;;47.90;32.60;;;;;;;-3.88;51.09;102397.11;110001;1279;21938;-87
2022/03/11 03:02:20;;;;;;;56.40;34.30;;;;;;;-3.91;51.26;102400.44;109895;1282;22283;-85
2022/03/11 03:06:16;;;;;;;51.00;36.50;;;;;;;-3.96;51.29;102402.23;108860;1290;21822;-86
2022/03/11 03:08:36;;;;;;;55.00;34.60;;;;;;;-4.01;51.50;102409.38;108055;1299;21878;-85
2022/03/11 03:12:08;;;;;;;52.10;36.30;;;;;;;-4.09;51.62;102406.73;108187;1298;22397;-86
2022/03/11 03:16:12;;;;;;;54.40;37.60;;;;;;;-4.16;51.75;102408.57;107617;1305;22348;-86
2022/03/11 03:19:42;;;;;;;;;;;;;;;;;;;;;
2022/03/11 03:23:27;;;;;;;52.90;34.70;;;;;;;-4.34;52.13;102410.04;105566;1326;21959;-87
2022/03/11 03:27:02;;;;;;;48.40;34.70;;;;;;;-4.28;52.10;102415.27;108372;1288;544299;-85
2022/03/11 03:30:46;;;;;;;40.80;30.10;;;;;;;-4.34;52.35;102416.91;110591;1262;23663;-85
2022/03/11 03:34:14;;;;;;;;;;;;;;;;;;;;;
2022/03/11 03:37:36;;;;;;;41.50;27.70;;;;;;;-4.47;52.73;102410.91;109362;1279;22025;-86
2022/03/11 03:44:53;;;;;;;;;;;;;;;;;;;;;
2022/03/11 03:52:33;;;;;;;;;;;;;;;;;;;;;
2022/03/11 03:55:50;;;;;;;;;;;;;;;;;;;;;
2022/03/11 03:59:39;;;;;;;39.50;24.70;;;;;;;-4.66;53.04;102420.62;110940;1260;22751;-85
2022/03/11 04:02:51;;;;;;;34.00;21.90;;;;;;;-4.67;53.14;102417.02;111105;1257;22756;-85
2022/03/11 04:05:42;;;;;;;33.60;22.30;;;;;;;-4.68;53.15;102421.84;110778;1257;22317;-85
2022/03/11 04:08:28;;;;;;;;;;;;;;;-4.70;53.25;102412.23;110608;1257;23501;-84
2022/03/11 04:11:02;;;;;;;37.10;22.70;;;;;;;-4.77;53.34;102415.08;110337;1257;22650;-82
2022/03/11 04:13:50;;;;;;;53.10;29.00;;;;;;;-4.80;53.23;102408.42;110167;1256;22643;-83
2022/03/11 04:16:27;;;;;;;35.10;23.30;;;;;;;-4.83;53.34;102404.16;110424;1257;22589;-84
2022/03/11 04:19:02;;;;;;;33.80;23.90;;;;;;;-4.84;53.28;102403.14;110294;1259;23831;-82
2022/03/11 04:21:32;;;;;;;41.50;28.60;;;;;;;-4.85;53.35;102403.66;109930;1263;21969;-83
2022/03/11 04:24:14;;;;;;;44.20;29.00;;;;;;;-4.86;53.38;102402.65;109111;1270;23711;-83
2022/03/11 04:26:50;;;;;;;44.70;27.70;;;;;;;-4.87;53.46;102406.95;109266;1270;22754;-83
2022/03/11 04:29:26;;;;;;;48.00;28.50;;;;;;;-4.91;53.53;102398.75;109033;1273;21970;-84
2022/03/11 04:31:55;;;;;;;53.20;31.90;;;;;;;-4.92;53.47;102396.36;108973;1273;22015;-81
2022/03/11 04:35:03;;;;;;;37.60;26.00;;;;;;;-4.93;53.51;102399.64;108904;1273;21972;-85
2022/03/11 04:38:20;;;;;;;51.90;32.00;;;;;;;-4.97;53.58;102398.14;109462;1273;22080;-86
2022/03/11 04:42:12;;;;;;;42.00;26.90;;;;;;;-4.99;53.66;102396.80;109646;1273;22049;-87
2022/03/11 04:44:46;;;;;;;38.80;26.10;;;;;;;-5.02;53.71;102394.41;110887;1256;22005;-86
2022/03/11 04:47:24;;;;;;;41.80;28.20;;;;;;;-5.01;53.73;102398.70;110680;1256;22053;-86
2022/03/11 04:49:58;;;;;;;43.70;28.80;;;;;;;-4.98;53.68;102401.92;110412;1259;22043;-85
2022/03/11 04:52:33;;;;;;;42.50;28.60;;;;;;;-4.98;53.66;102401.40;110373;1256;22065;-84
2022/03/11 04:55:16;;;;;;;35.30;26.10;;;;;;;-4.98;53.71;102401.23;110443;1256;21974;-82
2022/03/11 04:57:58;;;;;;;42.80;27.90;;;;;;;-4.98;53.78;102401.41;110113;1257;22281;-83
2022/03/11 05:00:31;;;;;;;39.50;28.60;;;;;;;-4.99;53.76;102403.84;110246;1256;21969;-83
2022/03/11 05:03:08;;;;;;;36.80;27.00;;;;;;;-5.00;53.71;102406.42;110042;1262;22986;-85
2022/03/11 05:05:55;;;;;;;38.10;28.80;;;;;;;-5.01;53.79;102410.71;109744;1262;22398;-86
2022/03/11 05:08:57;;;;;;;42.80;28.40;;;;;;;-5.01;53.89;102407.81;109630;1262;21970;-84
2022/03/11 05:11:30;;;;;;;48.50;31.00;;;;;;;-5.01;53.88;102411.92;109197;1267;21981;-84
2022/03/11 05:14:00;;;;;;;48.90;33.50;;;;;;;-5.01;53.92;102414.17;109120;1267;22476;-83
2022/03/11 05:16:30;;;;;;;48.20;34.00;;;;;;;-5.03;53.92;102411.61;109085;1267;21976;-82
2022/03/11 05:19:19;;;;;;;;;;;;;;;;;;;;;
2022/03/11 05:22:00;;;;;;;55.30;40.30;;;;;;;-5.07;53.96;102420.06;109018;1270;23080;-83
2022/03/11 05:24:35;;;;;;;;;;;;;;;-5.07;54.04;102422.83;109028;1270;21965;-83
2022/03/11 05:27:14;;;;;;;153.70;94.10;;;;;;;-5.11;54.24;102423.89;108737;1276;22036;-81
2022/03/11 05:29:53;;;;;;;86.70;52.90;;;;;;;-5.12;54.14;102426.83;108840;1273;23346;-82
2022/03/11 05:32:29;;;;;;;62.20;42.30;;;;;;;-5.11;54.22;102427.84;108824;1273;21997;-83
2022/03/11 05:35:10;;;;;;;52.60;39.30;;;;;;;-5.10;54.17;102426.29;108754;1273;23829;-82
2022/03/11 05:37:46;;;;;;;60.70;41.80;;;;;;;-5.10;54.31;102423.20;108721;1273;24424;-83
2022/03/11 05:40:30;;;;;;;49.40;37.50;;;;;;;-5.06;54.40;102425.74;108782;1273;21987;-82
2022/03/11 05:43:04;;;;;;;51.70;39.90;;;;;;;-5.05;54.33;102424.86;108588;1276;22007;-83
2022/03/11 05:45:36;;;;;;;49.60;36.20;;;;;;;-5.04;54.33;102424.16;108728;1273;22456;-81
2022/03/11 05:48:18;;;;;;;53.90;41.60;;;;;;;-5.01;54.45;102424.64;108833;1273;22356;-82
2022/03/11 05:50:57;;;;;;;64.00;43.00;;;;;;;-4.97;54.55;102424.08;108721;1273;22041;-80
2022/03/11 05:53:35;;;;;;;50.10;36.50;;;;;;;-4.92;54.51;102421.63;108706;1273;22016;-82
2022/03/11 05:56:14;;;;;;;49.00;35.00;;;;;;;-4.89;54.48;102422.96;109148;1267;23709;-81
2022/03/11 05:58:55;;;;;;;50.50;35.60;;;;;;;-4.87;54.52;102420.71;109233;1267;23018;-81
2022/03/11 06:01:27;;;;;;;52.50;37.10;;;;;;;-4.84;54.56;102424.44;108849;1273;23796;-83
2022/03/11 06:04:02;;;;;;;;;;;;;;;-4.79;54.55;102422.84;109010;1270;21999;-83
2022/03/11 06:06:52;;;;;;;41.70;29.80;;;;;;;-4.78;54.71;102419.23;108805;1271;21972;-82
2022/03/11 06:09:32;;;;;;;51.00;35.10;;;;;;;-4.74;54.63;102426.05;109436;1264;21989;-83
2022/03/11 06:12:04;;;;;;;55.40;36.20;;;;;;;-4.68;54.61;102428.39;109625;1264;22754;-83
2022/03/11 06:14:45;;;;;;;46.40;32.60;;;;;;;-4.62;54.57;102429.86;109319;1265;22113;-84
2022/03/11 06:17:22;;;;;;;100.70;69.20;;;;;;;-4.54;54.54;102428.38;109525;1264;22761;-80
2022/03/11 06:20:03;;;;;;;94.70;62.70;;;;;;;-4.47;54.59;102430.00;109062;1267;22221;-83
2022/03/11 06:22:55;;;;;;;77.30;44.50;;;;;;;-4.34;54.61;102431.19;109465;1267;22646;-86
2022/03/11 06:25:36;;;;;;;57.30;33.00;;;;;;;-4.26;54.47;102434.00;109329;1267;21978;-84
2022/03/11 06:28:09;;;;;;;50.10;30.20;;;;;;;-4.18;54.31;102438.55;109235;1267;22317;-84
2022/03/11 06:30:42;;;;;;;47.00;30.30;;;;;;;-4.11;54.13;102436.89;109267;1267;23051;-84
2022/03/11 06:33:15;;;;;;;54.50;29.40;;;;;;;-4.03;54.07;102430.92;109099;1267;23032;-84
2022/03/11 06:35:51;;;;;;;36.70;25.70;;;;;;;-3.94;53.92;102431.64;108823;1273;23602;-84
2022/03/11 06:38:47;;;;;;;48.80;32.60;;;;;;;-3.87;53.70;102435.65;109165;1264;22108;-83
2022/03/11 06:42:01;;;;;;;126.00;76.60;;;;;;;-3.78;53.55;102430.35;109678;1264;22007;-84
2022/03/11 06:44:44;;;;;;;126.90;61.60;;;;;;;-3.68;53.47;102428.80;109614;1264;21983;-83
2022/03/11 06:47:20;;;;;;;58.30;30.60;;;;;;;-3.55;53.28;102434.45;109907;1264;21983;-82
2022/03/11 06:50:04;;;;;;;;;;;;;;;;;;;;;
2022/03/11 06:52:40;;;;;;;50.40;27.40;;;;;;;-3.26;52.77;102441.87;109935;1264;23094;-81
2022/03/11 06:55:12;;;;;;;39.00;22.30;;;;;;;-3.14;52.57;102441.11;110299;1257;21960;-83
2022/03/11 06:57:44;;;;;;;41.20;24.50;;;;;;;-2.98;52.23;102439.63;109938;1264;22005;-82
2022/03/11 07:00:46;;;;;;;37.00;22.30;;;;;;;-2.81;52.10;102435.48;109806;1264;21991;-82
2022/03/11 07:03:33;;;;;;;30.70;20.00;;;;;;;-2.50;52.08;102433.27;109694;1264;23058;-82
2022/03/11 07:06:15;;;;;;;37.40;23.10;;;;;;;-2.27;51.46;102437.26;109633;1264;21989;-83
2022/03/11 07:08:50;;;;;;;38.40;21.20;;;;;;;-2.03;50.93;102433.79;109478;1268;21998;-83
2022/03/11 07:11:25;;;;;;;32.70;19.40;;;;;;;-1.77;50.52;102430.40;109196;1268;21983;-85
2022/03/11 07:13:59;;;;;;;33.80;20.00;;;;;;;-1.43;50.39;102432.31;108961;1276;22008;-80
2022/03/11 07:16:33;;;;;;;34.30;20.60;;;;;;;-1.00;50.20;102435.66;109305;1270;22034;-82
2022/03/11 07:19:33;;;;;;;44.70;25.80;;;;;;;-0.55;48.82;102436.80;109466;1270;24424;-88
2022/03/11 07:22:10;;;;;;;94.00;50.30;;;;;;;-0.09;48.19;102437.46;109476;1270;21983;-84
2022/03/11 07:24:46;;;;;;;65.80;34.10;;;;;;;0.47;48.43;102437.20;109703;1270;22038;-85
2022/03/11 07:27:24;;;;;;;29.90;19.30;;;;;;;0.84;46.13;102445.33;109826;1264;23697;-84
2022/03/11 07:30:00;;;;;;;38.00;22.50;;;;;;;0.98;45.28;102447.24;109769;1267;21979;-84
2022/03/11 07:32:33;;;;;;;37.40;20.10;;;;;;;1.12;44.75;102438.42;110216;1259;22660;-86
2022/03/11 07:35:07;;;;;;;30.40;20.00;;;;;;;1.42;44.88;102435.20;110470;1258;22848;-85
2022/03/11 07:37:40;;;;;;;33.20;19.90;;;;;;;1.70;44.20;102435.54;110493;1257;22078;-86
2022/03/11 07:40:14;;;;;;;60.00;37.90;;;;;;;1.89;42.73;102443.82;110161;1259;21961;-85
2022/03/11 07:43:09;;;;;;;58.60;41.60;;;;;;;2.12;42.97;102439.42;110349;1257;21969;-86
2022/03/11 07:46:10;;;;;;;38.00;25.00;;;;;;;2.42;42.24;102438.73;110681;1258;22136;-85
2022/03/11 07:49:23;;;;;;;34.10;21.90;;;;;;;2.61;41.46;102436.54;110014;1265;21962;-85
2022/03/11 07:51:57;;;;;;;30.10;18.10;;;;;;;2.77;40.71;102435.48;109575;1264;22947;-85
2022/03/11 07:54:37;;;;;;;30.00;18.40;;;;;;;2.90;40.39;102434.41;109419;1267;22095;-85
2022/03/11 07:57:17;;;;;;;26.60;17.80;;;;;;;3.15;40.07;102436.80;109273;1270;22155;-85
2022/03/11 08:00:00;;;;;;;32.90;19.30;;;;;;;3.30;39.47;102438.40;109227;1270;23095;-85
2022/03/11 08:02:47;;;;;;;31.20;20.10;;;;;;;3.44;38.82;102439.48;109193;1270;23028;-84
2022/03/11 08:05:25;;;;;;;22.40;15.90;;;;;;;3.41;37.05;102449.04;109087;1270;21990;-84
2022/03/11 08:08:16;;;;;;;28.40;19.20;;;;;;;3.11;36.42;102440.80;108889;1272;21997;-86
2022/03/11 08:11:00;;;;;;;27.60;18.30;;;;;;;3.05;36.97;102441.73;109062;1273;21975;-85
2022/03/11 08:13:43;;;;;;;18.10;12.30;;;;;;;3.21;37.23;102441.56;109117;1271;24656;-86
2022/03/11 08:16:48;;;;;;;;;;;;;;;;;;;;;
2022/03/11 08:19:24;;;;;;;28.80;16.90;;;;;;;3.51;36.50;102436.73;108724;1279;22016;-85
2022/03/11 08:21:59;;;;;;;22.90;14.40;;;;;;;3.61;36.10;102437.31;108655;1277;21994;-80
2022/03/11 08:24:45;;;;;;;29.20;19.70;;;;;;;3.70;35.91;102433.57;108908;1276;22650;-83
2022/03/11 08:27:22;;;;;;;46.60;33.90;;;;;;;3.79;35.30;102440.80;109095;1270;21975;-83
2022/03/11 08:29:54;;;;;;;32.30;19.00;;;;;;;3.75;34.84;102440.30;109042;1270;21994;-80
2022/03/11 08:32:29;;;;;;;26.60;14.90;;;;;;;3.70;34.74;102442.29;108766;1270;23073;-81
2022/03/11 08:34:59;;;;;;;36.40;20.90;;;;;;;3.64;34.50;102441.53;109322;1265;21977;-79
2022/03/11 08:37:40;;;;;;;48.30;27.50;;;;;;;3.56;34.35;102441.03;109178;1267;22079;-80
2022/03/11 08:40:15;;;;;;;18.50;12.50;;;;;;;3.44;33.77;102433.02;108946;1271;22423;-79
2022/03/11 08:42:48;;;;;;;35.20;19.80;;;;;;;3.45;34.15;102429.70;108764;1273;23028;-79
2022/03/11 08:45:22;;;;;;;31.50;24.70;;;;;;;3.72;34.58;102435.38;108677;1276;23078;-79
2022/03/11 08:47:53;;;;;;;37.90;31.10;;;;;;;3.93;34.29;102431.23;108632;1271;21989;-79
2022/03/11 08:50:27;;;;;;;25.30;17.10;;;;;;;4.18;34.44;102433.88;108969;1270;22450;-79
2022/03/11 08:53:03;;;;;;;19.90;15.00;;;;;;;4.50;34.20;102439.95;108556;1275;22454;-82
2022/03/11 08:55:37;;;;;;;20.40;14.20;;;;;;;4.64;33.71;102440.27;108636;1276;23055;-81
2022/03/11 08:58:07;;;;;;;29.50;13.80;;;;;;;4.84;33.23;102448.35;108760;1270;23586;-81
2022/03/11 09:00:41;;;;;;;30.90;20.20;;;;;;;4.91;32.78;102441.33;108941;1270;21985;-83
2022/03/11 09:03:11;;;;;;;39.10;22.10;;;;;;;5.06;32.63;102435.30;109164;1264;22300;-81
2022/03/11 09:05:44;;;;;;;25.50;15.10;;;;;;;5.28;32.43;102439.21;109504;1266;23051;-81
2022/03/11 09:08:14;;;;;;;15.20;10.70;;;;;;;5.45;31.35;102441.95;109125;1270;21991;-82
2022/03/11 09:10:44;;;;;;;20.60;14.90;;;;;;;5.38;30.87;102437.30;108801;1270;22754;-81
2022/03/11 09:13:18;;;;;;;25.70;16.30;;;;;;;5.43;30.86;102433.52;108605;1276;22032;-82
2022/03/11 09:15:48;;;;;;;25.40;17.00;;;;;;;5.57;30.74;102429.08;108777;1276;23599;-81
2022/03/11 09:18:18;;;;;;;15.10;10.80;;;;;;;5.67;30.51;102432.05;108555;1279;21980;-80
2022/03/11 09:20:50;;;;;;;15.80;10.70;;;;;;;5.77;30.05;102446.50;108452;1279;21997;-81
2022/03/11 09:23:23;;;;;;;13.90;10.20;;;;;;;5.67;29.76;102443.92;108554;1279;22153;-81
2022/03/11 09:25:56;;;;;;;16.90;11.20;;;;;;;5.56;29.94;102439.27;108579;1274;21997;-80
2022/03/11 09:28:32;;;;;;;17.20;11.20;;;;;;;5.55;29.87;102440.93;108803;1273;22028;-81
2022/03/11 09:31:08;;;;;;;39.70;23.80;;;;;;;5.32;29.43;102438.62;108810;1273;22024;-81
2022/03/11 09:33:41;;;;;;;52.00;37.50;;;;;;;5.34;30.28;102437.33;108830;1273;22383;-81
2022/03/11 09:36:14;;;;;;;33.80;21.00;;;;;;;5.56;29.83;102436.63;109183;1265;21995;-81
2022/03/11 09:38:46;;;;;;;19.20;11.60;;;;;;;5.72;29.66;102440.30;109518;1260;23077;-82
2022/03/11 09:41:18;;;;;;;31.00;16.90;;;;;;;5.85;29.44;102438.54;109175;1268;22928;-81
2022/03/11 09:43:55;;;;;;;21.60;11.70;;;;;;;5.97;29.23;102440.52;109173;1267;21988;-83
2022/03/11 09:46:26;;;;;;;20.20;12.90;;;;;;;6.20;29.26;102439.56;109265;1267;23800;-82
2022/03/11 09:49:00;;;;;;;23.50;14.40;;;;;;;6.38;28.43;102440.11;109204;1267;21972;-82
2022/03/11 09:51:41;;;;;;;20.90;14.60;;;;;;;6.57;28.65;102442.84;109235;1267;22095;-82
2022/03/11 09:54:11;;;;;;;19.70;14.40;;;;;;;6.71;28.24;102447.64;109333;1267;23296;-81
2022/03/11 09:56:43;;;;;;;14.70;10.90;;;;;;;6.60;27.79;102439.68;109195;1268;23715;-80
2022/03/11 09:59:19;;;;;;;38.40;21.80;;;;;;;6.48;27.86;102435.13;109268;1266;22017;-83
2022/03/11 10:01:55;;;;;;;26.90;15.50;;;;;;;6.54;28.03;102441.44;109174;1267;23718;-80
2022/03/11 10:04:33;;;;;;;19.40;11.90;;;;;;;6.53;27.55;102435.16;109058;1268;22453;-82
2022/03/11 10:07:21;;;;;;;22.50;14.70;;;;;;;6.64;27.87;102434.20;109535;1259;23602;-81
2022/03/11 10:10:12;;;;;;;22.60;14.70;;;;;;;6.85;28.04;102429.23;109762;1259;23601;-81
2022/03/11 10:13:03;;;;;;;21.30;12.90;;;;;;;7.08;26.94;102432.95;109725;1261;23050;-81
2022/03/11 10:15:41;;;;;;;30.20;14.10;;;;;;;7.07;26.38;102428.06;110029;1259;22090;-80
2022/03/11 10:18:17;;;;;;;21.30;12.80;;;;;;;7.40;27.07;102429.20;109641;1261;21969;-81
2022/03/11 10:21:08;;;;;;;19.80;12.00;;;;;;;7.99;27.06;102432.94;109886;1260;21940;-81
2022/03/11 10:23:54;;;;;;;22.10;14.20;;;;;;;8.53;25.92;102428.52;109649;1262;21981;-81
2022/03/11 10:26:43;;;;;;;22.90;14.10;;;;;;;8.84;25.31;102425.36;109620;1261;22034;-81
2022/03/11 10:29:18;;;;;;;16.20;11.30;;;;;;;9.38;25.37;102424.03;109289;1266;21989;-81
2022/03/11 10:31:58;;;;;;;23.70;13.60;;;;;;;10.00;24.79;102419.21;109219;1270;22795;-81
2022/03/11 10:34:34;;;;;;;19.30;12.60;;;;;;;10.52;24.38;102417.55;108976;1270;22139;-81
2022/03/11 10:37:17;;;;;;;20.10;14.50;;;;;;;11.18;24.03;102421.48;108864;1273;22398;-82
2022/03/11 10:39:55;;;;;;;14.10;11.00;;;;;;;11.81;23.62;102421.50;109012;1273;22816;-80
2022/03/11 10:42:34;;;;;;;16.40;9.50;;;;;;;12.61;23.08;102425.34;108636;1276;22036;-80
2022/03/11 10:45:08;;;;;;;15.90;10.80;;;;;;;13.16;21.91;102423.39;108610;1276;22049;-81
2022/03/11 10:47:46;;;;;;;16.30;13.00;;;;;;;13.19;20.89;102415.86;108451;1279;23028;-80
2022/03/11 10:50:25;;;;;;;15.00;10.80;;;;;;;13.32;20.54;102412.63;108196;1279;22009;-81
2022/03/11 10:52:59;;;;;;;19.10;11.60;;;;;;;13.64;20.42;102412.23;108384;1279;21992;-82
2022/03/11 10:55:35;;;;;;;14.60;11.00;;;;;;;13.66;19.69;102403.95;108643;1276;23178;-82
2022/03/11 10:58:10;;;;;;;14.30;11.00;;;;;;;13.55;19.43;102397.51;108440;1276;23703;-80
2022/03/11 11:00:43;;;;;;;11.50;9.50;;;;;;;13.74;19.26;102399.85;108394;1279;22004;-81
2022/03/11 11:03:21;;;;;;;11.40;8.50;;;;;;;13.89;18.74;102396.59;108560;1276;21999;-82
2022/03/11 11:06:01;;;;;;;12.50;8.80;;;;;;;13.70;17.99;102396.51;108648;1270;23091;-81
2022/03/11 11:08:35;;;;;;;16.00;10.30;;;;;;;13.34;18.11;102394.77;108859;1273;22004;-81
2022/03/11 11:11:05;;;;;;;12.40;8.40;;;;;;;13.23;18.41;102389.36;108537;1277;23867;-81
2022/03/11 11:13:37;;;;;;;11.30;8.80;;;;;;;12.92;18.44;102388.37;108452;1277;21994;-82
2022/03/11 11:16:12;;;;;;;12.40;9.90;;;;;;;12.16;18.38;102384.23;108729;1273;22915;-82
2022/03/11 11:18:44;;;;;;;11.90;8.60;;;;;;;11.12;18.42;102386.13;109116;1264;22047;-81
2022/03/11 11:21:24;;;;;;;14.70;9.30;;;;;;;9.92;18.59;102378.54;109433;1266;21982;-80
2022/03/11 11:24:04;;;;;;;16.40;10.90;;;;;;;8.74;18.94;102373.14;109418;1264;22040;-81
2022/03/11 11:26:41;;;;;;;12.60;8.60;;;;;;;7.75;19.71;102372.40;109361;1267;22020;-82
2022/03/11 11:29:20;;;;;;;17.90;11.00;;;;;;;7.00;20.31;102368.03;109502;1264;22000;-81
2022/03/11 11:31:52;;;;;;;11.60;8.70;;;;;;;6.39;20.75;102364.76;109148;1270;21984;-81
2022/03/11 11:34:35;;;;;;;13.40;8.70;;;;;;;5.79;21.09;102364.73;108635;1276;23693;-81
2022/03/11 11:37:09;;;;;;;11.90;8.50;;;;;;;5.22;21.61;102360.77;108964;1270;22174;-82
2022/03/11 11:39:47;;;;;;;18.40;10.20;;;;;;;4.74;22.17;102359.16;108731;1273;22675;-80
2022/03/11 11:42:21;;;;;;;15.60;9.60;;;;;;;4.39;22.61;102359.02;108571;1277;22858;-80
2022/03/11 11:44:51;;;;;;;14.70;8.90;;;;;;;4.13;22.96;102355.14;108503;1276;22199;-80
2022/03/11 11:47:32;;;;;;;17.50;10.90;;;;;;;3.94;23.30;102348.77;108726;1277;23063;-81
2022/03/11 11:50:23;;;;;;;20.80;13.40;;;;;;;3.88;23.52;102355.33;108611;1277;22092;-82
2022/03/11 11:53:01;;;;;;;17.90;10.70;;;;;;;3.76;23.60;102351.73;108912;1270;21985;-81
2022/03/11 11:55:45;;;;;;;21.40;12.10;;;;;;;3.65;23.81;102350.31;108957;1270;22014;-81
2022/03/11 11:58:23;;;;;;;17.50;9.10;;;;;;;3.63;23.99;102347.14;109077;1270;21988;-81
2022/03/11 12:00:57;;;;;;;20.90;12.40;;;;;;;3.54;23.96;102341.30;109052;1273;22006;-81
2022/03/11 12:03:49;;;;;;;15.00;10.40;;;;;;;3.44;24.11;102334.64;108679;1279;23765;-79
2022/03/11 12:07:13;;;;;;;14.50;8.00;;;;;;;3.43;24.34;102341.46;108609;1273;21990;-80
2022/03/11 12:09:53;;;;;;;14.60;8.70;;;;;;;3.37;24.34;102332.68;109017;1273;22000;-81
2022/03/11 12:12:30;;;;;;;12.20;8.40;;;;;;;3.37;24.55;102337.05;108786;1273;23638;-80
2022/03/11 12:17:56;;;;;;;11.20;8.30;;;;;;;3.27;24.63;102322.00;108946;1273;22787;-81
2022/03/11 12:20:49;;;;;;;14.70;11.10;;;;;;;3.31;24.88;102314.02;108722;1275;22781;-82
2022/03/11 12:23:20;;;;;;;16.00;8.90;;;;;;;3.33;24.98;102315.12;108670;1273;23657;-81
2022/03/11 12:25:59;;;;;;;15.80;9.80;;;;;;;3.34;25.10;102302.19;108711;1275;21987;-82
2022/03/11 12:28:35;;;;;;;15.50;8.20;;;;;;;3.36;25.13;102303.86;108856;1270;21986;-82
2022/03/11 12:31:24;;;;;;;11.90;9.00;;;;;;;3.36;25.14;102297.58;108758;1270;21994;-81
2022/03/11 12:33:57;;;;;;;11.90;8.30;;;;;;;3.34;25.22;102303.61;108759;1270;22000;-80
2022/03/11 12:36:27;;;;;;;13.90;8.60;;;;;;;3.32;25.08;102304.91;108808;1273;21978;-80
2022/03/11 12:38:57;;;;;;;12.20;8.10;;;;;;;3.26;25.05;102298.35;108862;1271;21989;-80
2022/03/11 12:41:32;;;;;;;12.40;8.00;;;;;;;3.23;25.07;102293.83;108811;1270;23718;-81
2022/03/11 12:44:08;;;;;;;11.60;7.80;;;;;;;3.27;25.24;102302.87;108979;1267;22306;-81
2022/03/11 12:46:41;;;;;;;11.10;8.10;;;;;;;3.29;25.40;102295.24;109520;1261;21991;-80
2022/03/11 12:49:14;;;;;;;11.30;7.90;;;;;;;3.34;25.47;102303.24;109191;1264;23835;-80
2022/03/11 12:51:44;;;;;;;15.60;8.70;;;;;;;3.31;25.51;102300.40;109313;1267;22384;-81
2022/03/11 12:54:17;;;;;;;11.10;8.50;;;;;;;3.28;25.62;102290.95;109219;1267;23441;-81
2022/03/11 12:56:48;;;;;;;11.10;7.80;;;;;;;3.29;25.74;102289.00;108689;1273;22013;-80
2022/03/11 12:59:18;;;;;;;14.50;8.30;;;;;;;3.32;25.86;102288.01;108309;1279;22947;-81
2022/03/11 13:01:51;;;;;;;14.10;7.90;;;;;;;3.39;26.11;102274.10;107888;1286;22096;-81
2022/03/11 13:04:23;;;;;;;11.90;9.30;;;;;;;3.47;26.14;102279.44;108059;1284;22062;-81
2022/03/11 13:07:18;;;;;;;13.40;7.90;;;;;;;3.47;26.05;102270.89;108119;1278;23033;-81
2022/03/11 13:09:54;;;;;;;19.80;8.40;;;;;;;3.48;26.10;102272.93;108624;1279;22150;-80